Airport View

Enter AWOS ICAO identifier for current METAR.

ex. KFNL

PATG 202356Z AUTO 32021KT 10SM CLR 11/02 A2945 RMK AO2 SLP066 T01060022 10111 20061 53005

21 Sep 2019 00:49

Frequency: 119.3

Other Area AWOS: PAPM - PAMB - PAEH - PADL

PADL 202321Z 2100/2124 35006KT P6SM BKN035 TEMPO 2100/2104 BKN030 FM212100 18012KT P6SM BKN050